Time;durP1;ratioP1;P1;durP2;ratioP2;P2;SDS_P1;SDS_P2;PMS_P1;PMS_P2;Temp;Humidity;BMP_temperature;BMP_pressure;BME280_temperature;BME280_humidity;BME280_pressure;Samples;Min_cycle;Max_cycle;Signal;HPM_P1;HPM_P2
2023/05/07 00:04:05;;;;;;;1.80;1.70;;;;;;;18.41;50.37;97044.19;10430597;28;20049;-55
2023/05/07 00:09:25;;;;;;;2.13;1.92;;;;;;;18.41;50.44;97046.88;10430513;28;20049;-55
2023/05/07 00:14:45;;;;;;;2.10;1.90;;;;;;;18.40;50.44;97045.28;10430171;28;20048;-55
2023/05/07 00:20:05;;;;;;;2.05;1.85;;;;;;;18.41;50.32;97046.09;10429849;28;20045;-55
2023/05/07 00:25:25;;;;;;;2.25;2.03;;;;;;;18.41;50.32;97051.47;10430010;28;20520;-55
2023/05/07 00:30:44;;;;;;;2.28;1.90;;;;;;;18.40;50.20;97041.78;10428709;28;20401;-55
2023/05/07 00:36:04;;;;;;;3.75;2.10;;;;;;;18.40;50.16;97050.66;10429367;28;20044;-56
2023/05/07 00:41:23;;;;;;;2.78;1.80;;;;;;;18.40;50.32;97045.28;10429285;28;20041;-55
2023/05/07 00:46:44;;;;;;;2.45;2.10;;;;;;;18.40;50.25;97047.19;10429159;28;20049;-55
2023/05/07 00:52:06;;;;;;;2.08;1.80;;;;;;;18.38;50.27;97053.69;10415847;28;20060;-55
2023/05/07 00:57:26;;;;;;;2.05;1.80;;;;;;;18.38;50.20;97053.69;10428769;28;20037;-55
2023/05/07 01:02:46;;;;;;;2.40;2.20;;;;;;;18.38;50.39;97055.56;10428633;28;20053;-55
2023/05/07 01:08:06;;;;;;;2.20;1.90;;;;;;;18.37;50.19;97057.50;10428408;28;20092;-55
2023/05/07 01:13:27;;;;;;;1.83;1.70;;;;;;;18.37;50.22;97052.09;10428258;28;20406;-55
2023/05/07 01:18:48;;;;;;;2.33;1.88;;;;;;;18.37;50.32;97052.09;10428128;28;20045;-55
2023/05/07 01:24:08;;;;;;;1.88;1.77;;;;;;;18.36;50.25;97047.78;10413404;28;20045;-55
2023/05/07 01:29:28;;;;;;;1.95;1.75;;;;;;;18.36;50.28;97055.88;10427059;28;20041;-55
2023/05/07 01:34:48;;;;;;;1.90;1.80;;;;;;;18.35;50.21;97065.09;10436194;28;20088;-55
2023/05/07 01:40:09;;;;;;;2.10;1.90;;;;;;;18.35;50.25;97062.41;10435234;28;20072;-55
2023/05/07 01:45:30;;;;;;;1.95;1.77;;;;;;;18.35;50.17;97061.59;10436007;28;20508;-55
2023/05/07 01:50:51;;;;;;;2.10;1.90;;;;;;;18.35;50.27;97061.59;10421120;28;20115;-55
2023/05/07 01:56:10;;;;;;;1.90;1.80;;;;;;;18.35;50.17;97058.91;10434689;28;20048;-55
2023/05/07 02:01:32;;;;;;;2.10;1.90;;;;;;;18.35;50.28;97062.41;10434454;28;20053;-55
2023/05/07 02:06:52;;;;;;;1.80;1.70;;;;;;;18.34;50.15;97052.69;10434265;28;20068;-55
2023/05/07 02:12:13;;;;;;;2.08;1.83;;;;;;;18.34;50.07;97058.09;10434989;28;20037;-55
2023/05/07 02:17:33;;;;;;;2.00;1.80;;;;;;;18.34;50.22;97066.19;10434863;28;20045;-55
2023/05/07 02:22:53;;;;;;;1.90;1.77;;;;;;;18.34;50.32;97063.50;10434692;28;20064;-55
2023/05/07 02:28:13;;;;;;;2.13;1.75;;;;;;;18.33;50.29;97061.91;10433443;28;20052;-55
2023/05/07 02:33:53;;;;;;;1.70;1.60;;;;;;;18.33;50.19;97067.31;10433148;28;20445;-55
2023/05/07 02:39:13;;;;;;;2.30;1.88;;;;;;;18.33;50.13;97066.53;10433957;28;20050;-55
2023/05/07 02:44:35;;;;;;;1.90;1.70;;;;;;;18.33;50.26;97067.31;10432729;28;20045;-55
2023/05/07 02:49:55;;;;;;;2.10;1.80;;;;;;;18.32;50.11;97065.69;10425305;28;20049;-55
2023/05/07 02:55:15;;;;;;;1.70;1.60;;;;;;;18.33;50.20;97069.22;10433266;28;20046;-55
2023/05/07 03:00:35;;;;;;;1.88;1.70;;;;;;;18.31;50.25;97064.13;10433110;28;20056;-55
2023/05/07 03:06:32;;;;;;;1.80;1.70;;;;;;;18.32;50.22;97065.69;10347043;28;20057;-55
2023/05/07 03:11:52;;;;;;;1.98;1.80;;;;;;;18.30;50.07;97067.91;10406485;28;20196;-55
2023/05/07 03:17:12;;;;;;;1.75;1.58;;;;;;;18.31;50.27;97066.81;10432632;28;20107;-55
2023/05/07 03:22:32;;;;;;;1.90;1.70;;;;;;;18.30;50.28;97067.91;10432330;28;20111;-55
2023/05/07 03:27:51;;;;;;;1.67;1.58;;;;;;;18.31;50.23;97072.22;10432119;28;20042;-55
2023/05/07 03:33:15;;;;;;;1.83;1.73;;;;;;;18.30;50.16;97067.13;10430852;28;20045;-55
2023/05/07 03:38:35;;;;;;;1.77;1.67;;;;;;;18.29;50.20;97060.94;10431693;28;20046;-55
2023/05/07 03:43:54;;;;;;;1.73;1.60;;;;;;;18.28;50.00;97070.13;10431717;28;20398;-55
2023/05/07 03:49:14;;;;;;;1.80;1.70;;;;;;;18.29;50.05;97071.72;10424914;28;20057;-55
2023/05/07 03:54:34;;;;;;;1.85;1.63;;;;;;;18.29;50.20;97070.94;10429610;28;20042;-55
2023/05/07 03:59:53;;;;;;;2.25;1.95;;;;;;;18.28;50.15;97072.03;10429929;28;20437;-55
2023/05/07 04:05:15;;;;;;;2.00;1.75;;;;;;;18.28;50.16;97070.13;10430713;28;20052;-55
2023/05/07 04:10:35;;;;;;;1.70;1.60;;;;;;;18.29;50.08;97077.13;10429446;28;20045;-55
2023/05/07 04:16:01;;;;;;;2.00;1.80;;;;;;;18.29;50.16;97070.94;10429247;28;20037;-55
2023/05/07 04:21:21;;;;;;;2.38;1.80;;;;;;;18.27;50.20;97079.34;10429034;28;20080;-55
2023/05/07 04:26:43;;;;;;;2.22;1.80;;;;;;;18.28;50.24;97080.91;10429765;28;20095;-55
2023/05/07 04:32:03;;;;;;;1.90;1.70;;;;;;;18.27;50.19;97079.34;10428766;28;20044;-55
2023/05/07 04:37:25;;;;;;;1.70;1.60;;;;;;;18.28;50.19;97096.31;10429460;28;20041;-55
2023/05/07 04:42:46;;;;;;;1.50;1.40;;;;;;;18.27;50.26;97103.59;10428236;28;20096;-55
2023/05/07 04:48:06;;;;;;;1.50;1.40;;;;;;;18.26;50.08;97103.91;10426679;28;20057;-55
2023/05/07 04:53:27;;;;;;;3.42;1.60;;;;;;;18.26;50.07;97112.78;10414123;28;20041;-55
2023/05/07 04:58:49;;;;;;;2.22;1.55;;;;;;;18.26;50.17;97110.09;10427730;28;20045;-55
2023/05/07 05:04:11;;;;;;;2.10;1.80;;;;;;;18.26;50.24;97112.00;10414332;28;20045;-55
2023/05/07 05:09:31;;;;;;;1.90;1.70;;;;;;;18.25;50.14;97119.31;10427121;28;20053;-55
2023/05/07 05:14:51;;;;;;;1.60;1.50;;;;;;;18.26;50.12;97125.47;10428193;28;20037;-55
2023/05/07 05:20:11;;;;;;;1.70;1.60;;;;;;;18.25;50.12;97130.09;10415028;28;20049;-55
2023/05/07 05:25:32;;;;;;;1.75;1.65;;;;;;;18.25;50.22;97135.47;10428030;28;20501;-55
2023/05/07 05:30:53;;;;;;;1.70;1.60;;;;;;;18.23;50.25;97140.38;10426994;28;20044;-55
2023/05/07 05:36:14;;;;;;;1.50;1.40;;;;;;;18.24;50.17;97147.34;10427766;28;20041;-55
2023/05/07 05:41:35;;;;;;;1.55;1.45;;;;;;;18.24;50.19;97136.56;10426733;28;20045;-55
2023/05/07 05:46:57;;;;;;;2.30;1.52;;;;;;;18.24;50.01;97139.25;10426584;28;20052;-55
2023/05/07 05:52:17;;;;;;;1.73;1.60;;;;;;;18.24;50.08;97147.34;10412721;28;20050;-55
2023/05/07 05:57:37;;;;;;;1.60;1.50;;;;;;;18.23;50.21;97145.78;10426418;28;20064;-55
2023/05/07 06:02:57;;;;;;;1.80;1.70;;;;;;;18.23;50.19;97145.78;10426369;28;20064;-55
2023/05/07 06:08:18;;;;;;;1.50;1.40;;;;;;;18.24;50.15;97141.97;10426265;28;20048;-55
2023/05/07 06:13:38;;;;;;;1.85;1.75;;;;;;;18.23;50.26;97148.47;10426060;28;20049;-55
2023/05/07 06:18:58;;;;;;;1.65;1.50;;;;;;;18.23;50.17;97153.06;10418649;28;20049;-55
2023/05/07 06:24:17;;;;;;;1.45;1.35;;;;;;;18.24;50.28;97157.34;10433633;28;20045;-55
2023/05/07 06:29:37;;;;;;;1.98;1.75;;;;;;;18.23;50.28;97167.34;10434352;28;20053;-55
2023/05/07 06:35:04;;;;;;;1.70;1.60;;;;;;;18.22;50.15;97179.22;10433229;28;20049;-55
2023/05/07 06:40:23;;;;;;;1.60;1.50;;;;;;;18.23;50.05;97182.72;10433027;28;20068;-55
2023/05/07 06:45:43;;;;;;;1.58;1.48;;;;;;;18.23;50.28;97197.03;10433767;28;20049;-55
2023/05/07 06:51:04;;;;;;;1.60;1.50;;;;;;;18.22;50.16;97184.63;10422130;28;20061;-55
2023/05/07 06:56:24;;;;;;;1.70;1.60;;;;;;;18.22;50.28;97189.22;10432381;28;20041;-55
2023/05/07 07:01:44;;;;;;;1.80;1.70;;;;;;;18.22;50.22;97198.09;10433221;28;20041;-55
2023/05/07 07:07:05;;;;;;;1.60;1.50;;;;;;;18.22;50.18;97200.81;10419424;28;20482;-55
2023/05/07 07:12:25;;;;;;;1.67;1.50;;;;;;;18.21;50.13;97210.00;10404783;28;20076;-55
2023/05/07 07:17:45;;;;;;;1.60;1.50;;;;;;;18.21;50.10;97209.19;10431603;28;20037;-55
2023/05/07 07:23:05;;;;;;;1.52;1.42;;;;;;;18.21;50.21;97214.59;10432491;28;20064;-55
2023/05/07 07:28:25;;;;;;;1.60;1.40;;;;;;;18.20;50.05;97208.41;10431281;28;20045;-55
2023/05/07 07:33:45;;;;;;;1.38;1.27;;;;;;;18.21;50.13;97206.50;10431907;28;20052;-55
2023/05/07 07:39:05;;;;;;;1.33;1.23;;;;;;;18.21;50.10;97210.00;10430775;28;20043;-55
2023/05/07 07:44:25;;;;;;;1.50;1.40;;;;;;;18.20;50.30;97216.50;10431510;28;20489;-55
2023/05/07 07:49:50;;;;;;;1.50;1.40;;;;;;;18.20;50.29;97229.97;10423302;28;20046;-55
2023/05/07 07:55:10;;;;;;;1.77;1.55;;;;;;;18.21;50.25;97230.75;10430126;28;20046;-55
2023/05/07 08:00:31;;;;;;;1.50;1.40;;;;;;;18.21;50.15;97219.97;10429979;28;20407;-55
2023/05/07 08:05:51;;;;;;;1.40;1.30;;;;;;;18.20;50.30;97229.97;10430652;28;20041;-55
2023/05/07 08:11:11;;;;;;;1.50;1.40;;;;;;;18.20;50.29;97239.97;10429437;28;20046;-55
2023/05/07 08:16:31;;;;;;;1.55;1.45;;;;;;;18.18;50.27;97232.97;10429335;28;20095;-55
2023/05/07 08:21:52;;;;;;;1.40;1.30;;;;;;;18.20;50.15;97246.16;10429074;28;20045;-55
2023/05/07 08:27:12;;;;;;;1.40;1.30;;;;;;;18.20;50.23;97243.47;10428907;28;20417;-55
2023/05/07 08:32:34;;;;;;;1.73;1.63;;;;;;;18.19;50.31;97255.34;10429530;28;20048;-55
2023/05/07 08:37:54;;;;;;;1.63;1.52;;;;;;;18.19;50.20;97260.75;10429378;28;20053;-55
2023/05/07 08:43:15;;;;;;;1.60;1.50;;;;;;;18.20;50.19;97264.25;10428142;28;20465;-55
2023/05/07 08:48:36;;;;;;;1.50;1.40;;;;;;;18.18;50.27;97264.53;10414683;28;20072;-55
2023/05/07 08:54:07;;;;;;;1.55;1.45;;;;;;;18.19;50.28;97271.53;10428017;28;20045;-55
2023/05/07 08:59:27;;;;;;;1.42;1.33;;;;;;;18.18;50.44;97269.94;10428619;28;20099;-55
2023/05/07 09:04:47;;;;;;;1.45;1.35;;;;;;;18.18;50.25;97265.31;10415510;28;20049;-55
2023/05/07 09:10:07;;;;;;;1.40;1.30;;;;;;;18.18;50.38;97273.41;10428386;28;20092;-55
2023/05/07 09:15:29;;;;;;;1.52;1.42;;;;;;;18.20;50.43;97272.34;10428191;28;20048;-55
2023/05/07 09:20:49;;;;;;;1.40;1.30;;;;;;;18.18;50.42;97276.13;10400235;28;20123;-55
2023/05/07 09:26:11;;;;;;;1.40;1.30;;;;;;;18.19;50.44;97282.31;10427056;28;20084;-55
2023/05/07 09:31:37;;;;;;;1.40;1.30;;;;;;;18.18;50.46;97286.09;10426879;28;20045;-55
2023/05/07 09:37:02;;;;;;;5.30;4.80;;;;;;;18.02;46.57;97293.72;10425787;28;20037;-55
2023/05/07 09:42:26;;;;;;;5.82;5.30;;;;;;;17.92;46.34;97283.97;10427684;28;20452;-55
2023/05/07 09:47:53;;;;;;;6.25;5.57;;;;;;;17.51;44.66;97290.13;10426099;28;20509;-54
2023/05/07 09:53:14;;;;;;;6.38;5.72;;;;;;;17.43;45.51;97281.94;10430152;28;20088;-55
2023/05/07 09:58:37;;;;;;;4.57;3.90;;;;;;;17.67;47.36;97289.84;10432474;28;20410;-55
2023/05/07 10:03:57;;;;;;;4.78;4.20;;;;;;;17.83;48.31;97285.72;10435057;28;20401;-55
2023/05/07 10:09:18;;;;;;;4.13;3.72;;;;;;;17.92;48.55;97288.56;10419936;28;20057;-55
2023/05/07 10:14:38;;;;;;;5.00;3.88;;;;;;;17.96;48.63;97289.56;10434574;28;20045;-55
2023/05/07 10:19:58;;;;;;;4.00;3.60;;;;;;;17.99;49.05;97283.53;10433610;28;20045;-55
2023/05/07 10:25:26;;;;;;;4.00;3.70;;;;;;;18.01;48.99;97284.03;10434221;28;20068;-55
2023/05/07 10:31:01;;;;;;;5.13;4.65;;;;;;;18.00;47.33;97285.16;10419172;28;20041;-55
2023/05/07 10:36:27;;;;;;;6.22;5.70;;;;;;;17.90;46.49;97280.78;10419566;28;20482;-55
2023/05/07 10:41:48;;;;;;;5.45;4.82;;;;;;;17.93;47.72;97268.56;10433486;28;20045;-55
2023/05/07 10:47:10;;;;;;;4.95;4.40;;;;;;;17.97;48.38;97265.00;10432485;28;20052;-55
2023/05/07 10:52:31;;;;;;;4.47;4.07;;;;;;;18.00;48.99;97274.38;10419276;28;20049;-55
2023/05/07 10:58:26;;;;;;;4.72;4.00;;;;;;;18.02;49.24;97260.59;10432270;28;20046;-55
2023/05/07 11:04:08;;;;;;;;;;;;;;;18.02;49.64;97257.91;10417691;28;20520;-54
2023/05/07 11:09:54;;;;;;;5.13;4.00;;;;;;;18.02;49.75;97277.56;10431926;28;19921;-55
2023/05/07 11:15:43;;;;;;;4.00;3.05;;;;;;;18.04;49.94;97271.88;10431601;28;20045;-54
2023/05/07 11:21:10;;;;;;;3.13;2.67;;;;;;;18.07;49.98;97276.63;10431612;28;20504;-55
2023/05/07 11:26:47;;;;;;;5.32;4.28;;;;;;;18.09;50.58;97277.13;10431336;28;20041;-54
2023/05/07 11:32:07;;;;;;;3.97;3.60;;;;;;;18.10;50.81;97279.53;10431107;28;20398;-54
2023/05/07 11:37:44;;;;;;;4.30;3.45;;;;;;;18.11;51.00;97283.03;10419252;28;20042;-55
2023/05/07 11:43:10;;;;;;;3.17;2.97;;;;;;;18.14;50.97;97282.44;10416775;28;20042;-54
2023/05/07 11:48:30;;;;;;;4.40;3.95;;;;;;;18.14;51.04;97280.53;10428048;28;20057;-52
2023/05/07 11:53:50;;;;;;;4.32;3.92;;;;;;;18.18;51.07;97280.72;10431136;28;20413;-54
2023/05/07 11:59:09;;;;;;;4.07;3.50;;;;;;;18.21;51.16;97279.31;10430942;28;20042;-54
2023/05/07 12:04:30;;;;;;;4.30;3.58;;;;;;;18.23;51.10;97282.50;10430732;28;20580;-53
2023/05/07 12:09:50;;;;;;;5.22;3.75;;;;;;;18.26;51.05;97282.69;10430511;28;20083;-52
2023/05/07 12:15:10;;;;;;;4.25;3.83;;;;;;;18.29;51.17;97284.78;10429902;28;20045;-54
2023/05/07 12:20:29;;;;;;;3.53;3.22;;;;;;;18.33;50.85;97287.69;10430127;28;20486;-53
2023/05/07 12:25:49;;;;;;;4.00;2.83;;;;;;;18.35;50.75;97278.19;10429830;28;20049;-54
2023/05/07 12:31:08;;;;;;;2.65;2.45;;;;;;;18.38;50.58;97280.28;10434054;28;20558;-54
2023/05/07 12:36:37;;;;;;;3.42;3.13;;;;;;;18.42;50.62;97282.34;10439033;28;20038;-54
2023/05/07 12:41:59;;;;;;;5.65;3.78;;;;;;;18.45;50.92;97289.84;10429382;28;20047;-56
2023/05/07 12:47:18;;;;;;;9.93;4.10;;;;;;;18.51;52.35;97280.53;10428134;28;20048;-55
2023/05/07 12:52:38;;;;;;;7.60;4.40;;;;;;;18.54;53.52;97288.81;10429020;28;20504;-56
2023/05/07 12:58:02;;;;;;;6.75;3.88;;;;;;;18.57;53.32;97298.19;10415136;28;20049;-57
2023/05/07 13:03:29;;;;;;;5.55;4.20;;;;;;;18.60;52.92;97289.47;10428680;28;20502;-56
2023/05/07 13:08:49;;;;;;;8.02;3.85;;;;;;;18.62;52.72;97281.91;10416014;28;20049;-55
2023/05/07 13:14:08;;;;;;;5.00;3.20;;;;;;;18.63;49.11;97290.78;10428400;28;20045;-55
2023/05/07 13:19:28;;;;;;;9.15;3.53;;;;;;;18.63;50.99;97278.06;10428261;28;20049;-54
2023/05/07 13:24:48;;;;;;;9.43;3.95;;;;;;;18.68;51.12;97271.75;10428153;28;20049;-54
2023/05/07 13:30:07;;;;;;;4.70;3.42;;;;;;;18.72;51.09;97283.56;10426063;28;20152;-53
2023/05/07 13:35:27;;;;;;;5.90;3.13;;;;;;;18.75;51.17;97278.31;10427617;28;20493;-53
2023/05/07 13:40:47;;;;;;;4.28;2.45;;;;;;;18.78;51.30;97279.63;10427580;28;20038;-54
2023/05/07 13:46:06;;;;;;;7.25;4.00;;;;;;;18.84;51.30;97277.63;10426900;28;20048;-55
2023/05/07 13:51:26;;;;;;;6.50;3.13;;;;;;;18.87;51.34;97275.09;10414207;28;20056;-54
2023/05/07 13:56:45;;;;;;;4.97;3.22;;;;;;;18.92;51.42;97263.38;10427297;28;20076;-55
2023/05/07 14:02:04;;;;;;;2.50;2.05;;;;;;;18.94;51.55;97267.38;10395051;28;20038;-56
2023/05/07 14:07:24;;;;;;;3.15;2.50;;;;;;;18.98;51.37;97264.06;10427211;28;20045;-55
2023/05/07 14:12:45;;;;;;;3.63;2.60;;;;;;;19.01;51.41;97264.22;10413873;28;20046;-54
2023/05/07 14:18:06;;;;;;;3.75;3.08;;;;;;;19.03;51.55;97266.63;10427091;28;20482;-55
2023/05/07 14:23:27;;;;;;;3.63;3.00;;;;;;;19.05;51.51;97264.41;10413873;28;20068;-55
2023/05/07 14:28:46;;;;;;;4.20;2.80;;;;;;;19.09;51.55;97271.59;10413775;28;20057;-55
2023/05/07 14:34:06;;;;;;;2.72;2.47;;;;;;;19.11;51.51;97266.69;10426758;28;20405;-55
2023/05/07 14:39:25;;;;;;;4.60;2.78;;;;;;;19.15;51.43;97262.25;10430375;28;20037;-56
2023/05/07 14:44:46;;;;;;;3.58;2.65;;;;;;;19.17;51.52;97254.63;10433910;28;20045;-55
2023/05/07 14:50:06;;;;;;;2.63;2.30;;;;;;;19.21;51.48;97267.50;10425947;28;20076;-55
2023/05/07 14:55:26;;;;;;;4.63;2.92;;;;;;;19.22;51.50;97277.22;10433327;28;20041;-55
2023/05/07 15:00:45;;;;;;;3.38;2.40;;;;;;;19.25;51.34;97274.69;10433279;28;20457;-54
2023/05/07 15:06:05;;;;;;;2.97;2.63;;;;;;;19.27;51.45;97266.28;10418195;28;20049;-54
2023/05/07 15:11:24;;;;;;;4.13;2.78;;;;;;;19.30;51.32;97281.84;10351289;28;20038;-55
2023/05/07 15:16:44;;;;;;;2.83;2.53;;;;;;;19.32;51.30;97275.03;10351039;28;20042;-55
2023/05/07 15:22:04;;;;;;;4.57;2.70;;;;;;;19.36;51.53;97275.19;10357099;28;20037;-55
2023/05/07 15:27:24;;;;;;;2.28;2.08;;;;;;;19.39;51.41;97280.00;10407996;28;20042;-55
2023/05/07 15:32:45;;;;;;;3.42;2.50;;;;;;;19.42;51.29;97279.34;10422985;28;20048;-54
2023/05/07 15:38:05;;;;;;;3.83;2.45;;;;;;;19.44;51.35;97269.03;10402550;28;20100;-55
2023/05/07 15:43:25;;;;;;;2.92;2.13;;;;;;;19.48;50.97;97272.72;10377622;28;20053;-54
2023/05/07 15:48:44;;;;;;;5.10;2.30;;;;;;;19.51;51.18;97276.72;10397657;28;20053;-55
2023/05/07 15:54:04;;;;;;;5.68;2.35;;;;;;;19.54;51.25;97282.28;10430684;28;20096;-54
2023/05/07 15:59:24;;;;;;;3.80;2.08;;;;;;;19.59;51.03;97270.53;10417912;28;20057;-54
2023/05/07 16:04:43;;;;;;;4.82;2.30;;;;;;;19.62;51.11;97275.31;10430569;28;20045;-54
2023/05/07 16:10:04;;;;;;;2.80;2.40;;;;;;;19.65;51.04;97282.00;10429967;28;20485;-55
2023/05/07 16:15:24;;;;;;;4.43;2.10;;;;;;;19.67;51.09;97275.16;10430389;28;20401;-55
2023/05/07 16:20:45;;;;;;;5.10;1.92;;;;;;;19.68;51.16;97273.25;10416103;28;20072;-54
2023/05/07 16:26:04;;;;;;;2.50;2.10;;;;;;;19.70;50.96;97273.75;10428859;28;20072;-55
2023/05/07 16:31:24;;;;;;;2.58;1.42;;;;;;;19.69;51.12;97278.34;10428977;28;20042;-54
2023/05/07 16:36:44;;;;;;;2.67;2.03;;;;;;;19.69;51.03;97283.75;10427902;28;20037;-54
2023/05/07 16:42:04;;;;;;;3.33;1.88;;;;;;;19.72;51.07;97287.78;10414506;28;20045;-54
2023/05/07 16:47:23;;;;;;;2.72;1.90;;;;;;;19.71;51.05;97296.97;10426302;28;20057;-53
2023/05/07 16:52:43;;;;;;;2.10;1.92;;;;;;;19.69;50.92;97299.97;10422611;28;20041;-56
2023/05/07 16:58:07;;;;;;;3.63;1.98;;;;;;;19.69;50.71;97299.19;10428934;28;20046;-55
2023/05/07 17:03:28;;;;;;;2.28;2.08;;;;;;;19.70;50.84;97312.41;10428625;28;20053;-55
2023/05/07 17:08:50;;;;;;;2.72;1.95;;;;;;;19.73;50.89;97311.00;10422908;28;20041;-53
2023/05/07 17:14:10;;;;;;;2.20;1.63;;;;;;;19.75;51.04;97314.19;10397944;28;20091;-53
2023/05/07 17:19:30;;;;;;;1.67;1.52;;;;;;;19.73;51.17;97316.41;10403427;28;20136;-54
2023/05/07 17:24:49;;;;;;;2.13;1.90;;;;;;;19.72;51.23;97333.75;10403295;28;20045;-54
2023/05/07 17:30:10;;;;;;;3.50;2.10;;;;;;;19.70;51.22;97336.72;10387058;28;20042;-56
2023/05/07 17:35:31;;;;;;;4.70;1.58;;;;;;;19.72;51.32;97336.44;10392503;28;20107;-53
2023/05/07 17:40:51;;;;;;;3.53;1.42;;;;;;;19.73;51.48;97346.94;10389953;28;20061;-54
2023/05/07 17:46:10;;;;;;;1.98;1.48;;;;;;;19.74;51.73;97372.06;10386734;28;20053;-53
2023/05/07 17:51:31;;;;;;;3.83;1.90;;;;;;;19.73;51.75;97362.34;10409358;28;20129;-53
2023/05/07 17:56:50;;;;;;;2.70;1.70;;;;;;;19.71;51.95;97369.94;10415866;28;20038;-53
2023/05/07 18:02:10;;;;;;;2.30;2.10;;;;;;;19.71;52.01;97368.06;10407800;28;20068;-53
2023/05/07 18:07:30;;;;;;;1.38;1.27;;;;;;;19.70;51.82;97371.88;10424173;28;20072;-53
2023/05/07 18:12:50;;;;;;;1.55;1.45;;;;;;;19.70;52.02;97387.28;10428617;28;20049;-54
2023/05/07 18:18:10;;;;;;;3.15;1.70;;;;;;;19.70;51.81;97392.69;10434965;28;20045;-54
2023/05/07 18:23:32;;;;;;;1.70;1.60;;;;;;;19.69;51.87;97402.69;10434782;28;20041;-54
2023/05/07 18:28:52;;;;;;;1.70;1.40;;;;;;;19.69;51.92;97399.19;10433989;28;20041;-53
2023/05/07 18:34:13;;;;;;;3.97;1.90;;;;;;;19.70;51.94;97407.00;10433104;28;20037;-52
2023/05/07 18:39:34;;;;;;;3.08;1.65;;;;;;;19.71;52.01;97418.59;10420007;28;20050;-52
2023/05/07 18:44:54;;;;;;;1.98;1.23;;;;;;;19.70;52.05;97422.44;10431132;28;20417;-52
2023/05/07 18:50:15;;;;;;;1.52;1.42;;;;;;;19.70;51.96;97430.53;10413247;28;20049;-52
2023/05/07 18:55:34;;;;;;;1.70;1.60;;;;;;;19.70;51.97;97433.25;10409099;28;20042;-53
2023/05/07 19:00:54;;;;;;;4.05;1.70;;;;;;;19.70;52.12;97441.34;10351617;28;20039;-53
2023/05/07 19:06:14;;;;;;;1.90;1.60;;;;;;;19.69;51.81;97437.03;10351501;28;20058;-54
2023/05/07 19:11:33;;;;;;;6.03;1.70;;;;;;;19.69;51.82;97434.34;10336616;28;20420;-53
2023/05/07 19:16:53;;;;;;;3.40;1.73;;;;;;;19.67;51.90;97448.16;10351036;28;20050;-54
2023/05/07 19:22:12;;;;;;;2.55;1.83;;;;;;;19.68;51.83;97443.53;10350910;28;20042;-54
2023/05/07 19:27:31;;;;;;;1.73;1.60;;;;;;;19.68;51.84;97455.19;10349605;28;20506;-54
2023/05/07 19:32:51;;;;;;;2.35;1.75;;;;;;;19.67;51.86;97467.09;10337572;28;20109;-53
2023/05/07 19:38:10;;;;;;;2.55;1.50;;;;;;;19.66;51.94;97464.69;10350340;28;20042;-54
2023/05/07 19:43:36;;;;;;;2.00;1.70;;;;;;;19.65;51.73;97466.59;10350174;28;20526;-54
2023/05/07 19:48:56;;;;;;;2.00;1.73;;;;;;;19.66;51.88;97467.38;10358460;28;20054;-53
2023/05/07 19:54:15;;;;;;;1.85;1.60;;;;;;;19.64;51.79;97470.41;10390329;28;20076;-54
2023/05/07 19:59:35;;;;;;;2.85;1.60;;;;;;;19.64;51.73;97472.31;10390145;28;20042;-54
2023/05/07 20:04:55;;;;;;;2.03;1.60;;;;;;;19.64;51.67;97466.91;10390000;28;20045;-53
2023/05/07 20:10:14;;;;;;;2.47;1.40;;;;;;;19.62;51.62;97455.59;10389677;28;20050;-54
2023/05/07 20:15:36;;;;;;;1.83;1.73;;;;;;;19.63;51.68;97468.03;10393236;28;20053;-54
2023/05/07 20:20:56;;;;;;;2.15;1.50;;;;;;;19.63;51.65;97474.22;10430226;28;20041;-54
2023/05/07 20:26:15;;;;;;;1.85;1.50;;;;;;;19.62;51.58;97479.91;10425746;28;20413;-53
2023/05/07 20:31:35;;;;;;;1.70;1.50;;;;;;;19.61;51.51;97478.34;10429641;28;20049;-54
2023/05/07 20:36:55;;;;;;;1.65;1.52;;;;;;;19.62;51.51;97504.25;10429136;28;20041;-54
2023/05/07 20:42:16;;;;;;;2.17;1.50;;;;;;;19.60;51.53;97506.47;10429216;28;20148;-54
2023/05/07 20:47:36;;;;;;;3.05;1.63;;;;;;;19.59;51.56;97518.41;10426371;28;20048;-53
2023/05/07 20:52:55;;;;;;;1.50;1.38;;;;;;;19.58;51.51;97519.47;10429004;28;20045;-53
2023/05/07 20:58:15;;;;;;;1.58;1.48;;;;;;;19.58;51.47;97530.28;10428863;28;20067;-53
2023/05/07 21:03:34;;;;;;;1.60;1.50;;;;;;;19.58;51.46;97533.00;10428702;28;20453;-54
2023/05/07 21:08:54;;;;;;;2.53;1.70;;;;;;;19.57;51.34;97540.31;10399248;28;20057;-54
2023/05/07 21:14:13;;;;;;;1.60;1.50;;;;;;;19.56;51.35;97554.91;10397576;28;20056;-54
2023/05/07 21:19:33;;;;;;;2.55;1.33;;;;;;;19.56;51.28;97547.63;10387332;28;20103;-54
2023/05/07 21:24:52;;;;;;;1.70;1.50;;;;;;;19.56;51.27;97544.94;10387172;28;20046;-54
2023/05/07 21:30:12;;;;;;;1.42;1.33;;;;;;;19.55;51.24;97559.53;10387116;28;20045;-54
2023/05/07 21:35:32;;;;;;;1.70;1.33;;;;;;;19.53;51.29;97550.94;10386998;28;20042;-54
2023/05/07 21:40:51;;;;;;;1.40;1.30;;;;;;;19.52;51.21;97548.53;10386868;28;20049;-54
2023/05/07 21:46:11;;;;;;;1.38;1.27;;;;;;;19.51;51.05;97563.94;10386750;28;20050;-54
2023/05/07 21:51:33;;;;;;;1.50;1.40;;;;;;;19.52;51.12;97562.03;10417198;28;20057;-54
2023/05/07 21:56:52;;;;;;;1.45;1.35;;;;;;;19.51;51.09;97555.06;10435932;28;20037;-54
2023/05/07 22:02:12;;;;;;;1.50;1.40;;;;;;;19.50;51.08;97553.44;10435843;28;20444;-54
2023/05/07 22:07:31;;;;;;;1.50;1.40;;;;;;;19.49;50.95;97558.06;10422436;28;20064;-54
2023/05/07 22:12:51;;;;;;;1.55;1.45;;;;;;;19.48;50.91;97553.78;10435199;28;20048;-54
2023/05/07 22:18:10;;;;;;;2.08;1.58;;;;;;;19.47;50.92;97559.47;10435151;28;20041;-54
2023/05/07 22:23:30;;;;;;;1.23;1.10;;;;;;;19.46;50.86;97558.66;10434927;28;20516;-54
2023/05/07 22:28:49;;;;;;;1.30;1.20;;;;;;;19.46;50.75;97555.94;10434703;28;20045;-54
2023/05/07 22:34:08;;;;;;;2.40;1.38;;;;;;;19.46;50.74;97550.53;10434493;28;20041;-54
2023/05/07 22:39:33;;;;;;;1.58;1.48;;;;;;;19.44;50.74;97558.16;10434325;28;20045;-54
2023/05/07 22:44:55;;;;;;;1.75;1.40;;;;;;;19.44;50.60;97551.97;10434109;28;20413;-54
2023/05/07 22:50:15;;;;;;;1.60;1.50;;;;;;;19.42;50.58;97546.84;10425678;28;20057;-54
2023/05/07 22:55:35;;;;;;;1.58;1.45;;;;;;;19.43;50.63;97544.97;10433640;28;20041;-54
2023/05/07 23:00:54;;;;;;;1.40;1.30;;;;;;;19.42;50.53;97548.75;10420216;28;20057;-54
2023/05/07 23:06:13;;;;;;;2.65;1.35;;;;;;;19.40;50.56;97540.97;10433347;28;20053;-54
2023/05/07 23:11:33;;;;;;;1.42;1.33;;;;;;;19.40;50.57;97538.25;10419606;28;20418;-54
2023/05/07 23:16:53;;;;;;;1.70;1.60;;;;;;;19.40;50.46;97540.16;10431862;28;20437;-54
2023/05/07 23:22:14;;;;;;;1.60;1.50;;;;;;;19.38;50.48;97542.38;10432657;28;20045;-54
2023/05/07 23:27:34;;;;;;;1.50;1.40;;;;;;;19.38;50.40;97534.28;10432515;28;20045;-54
2023/05/07 23:32:54;;;;;;;1.50;1.33;;;;;;;19.36;50.46;97532.66;10432228;28;20049;-54
2023/05/07 23:38:13;;;;;;;1.42;1.33;;;;;;;19.36;50.47;97535.38;10432071;28;20045;-54
2023/05/07 23:43:33;;;;;;;1.40;1.30;;;;;;;19.35;50.42;97528.38;10431904;28;20489;-54
2023/05/07 23:48:52;;;;;;;1.52;1.33;;;;;;;19.35;50.33;97530.28;10427283;28;20061;-54
2023/05/07 23:54:11;;;;;;;1.42;1.33;;;;;;;19.33;50.41;97522.47;10431411;28;20044;-54
2023/05/07 23:59:31;;;;;;;2.13;1.55;;;;;;;19.33;50.36;97521.69;10431207;28;20053;-54
